createdAt,value
2023-05-22T00:02:48.997Z,26.3
2023-05-22T00:08:40.552Z,26.2
2023-05-22T00:14:16.134Z,26.2
2023-05-22T00:20:08.780Z,26.2
2023-05-22T00:26:00.304Z,26.1
2023-05-22T00:31:51.460Z,26.1
2023-05-22T00:37:43.248Z,26.1
2023-05-22T00:43:34.904Z,26.1
2023-05-22T00:49:26.702Z,26.1
2023-05-22T00:55:18.105Z,26.1
2023-05-22T01:01:09.553Z,26.1
2023-05-22T01:07:02.215Z,26.1
2023-05-22T01:12:54.046Z,26.1
2023-05-22T01:18:45.640Z,26
2023-05-22T01:24:37.639Z,26
2023-05-22T01:30:29.689Z,26
2023-05-22T01:36:21.271Z,26
2023-05-22T01:42:12.405Z,26
2023-05-22T01:48:05.139Z,25.9
2023-05-22T01:53:55.768Z,25.9
2023-05-22T01:59:47.148Z,25.9
2023-05-22T02:05:40.924Z,25.9
2023-05-22T02:11:32.439Z,25.9
2023-05-22T02:17:24.318Z,25.9
2023-05-22T02:23:01.208Z,25.9
2023-05-22T02:28:52.679Z,25.9
2023-05-22T02:34:44.734Z,25.9
2023-05-22T02:40:36.536Z,25.9
2023-05-22T02:46:28.136Z,25.8
2023-05-22T02:52:19.733Z,25.8
2023-05-22T02:58:11.305Z,25.8
2023-05-22T03:04:03.366Z,25.8
2023-05-22T03:09:55.010Z,25.8
2023-05-22T03:15:47.071Z,25.8
2023-05-22T03:21:38.795Z,25.8
2023-05-22T03:27:29.689Z,25.8
2023-05-22T03:33:22.399Z,25.8
2023-05-22T03:39:14.138Z,25.8
2023-05-22T03:44:51.453Z,25.7
2023-05-22T03:50:28.608Z,25.7
2023-05-22T03:56:22.160Z,25.7
2023-05-22T04:02:12.856Z,25.6
2023-05-22T04:08:05.171Z,25.6
2023-05-22T04:13:57.346Z,25.6
2023-05-22T04:19:48.201Z,25.6
2023-05-22T04:25:40.117Z,25.5
2023-05-22T04:31:31.554Z,25.4
2023-05-22T04:37:07.569Z,25.2
2023-05-22T04:42:46.001Z,25.1
2023-05-22T04:48:37.741Z,24.9
2023-05-22T04:54:28.913Z,24.9
2023-05-22T05:00:33.691Z,24.8
2023-05-22T05:06:27.010Z,24.8
2023-05-22T05:12:19.382Z,24.7
2023-05-22T05:18:11.857Z,24.7
2023-05-22T05:23:50.966Z,24.6
2023-05-22T05:29:41.812Z,24.6
2023-05-22T05:35:33.531Z,24.6
2023-05-22T05:41:09.694Z,24.6
2023-05-22T05:47:01.310Z,24.5
2023-05-22T05:52:52.524Z,24.5
2023-05-22T05:58:44.945Z,24.5
2023-05-22T06:04:38.461Z,24.5
2023-05-22T06:10:15.114Z,24.4
2023-05-22T06:16:06.823Z,24.2
2023-05-22T06:21:59.848Z,38.6
2023-05-22T06:27:51.262Z,37.5
2023-05-22T06:34:03.936Z,35.3
2023-05-22T06:39:55.724Z,33.4
2023-05-22T06:45:47.407Z,31.8
2023-05-22T06:51:40.262Z,32.8
2023-05-22T06:57:32.224Z,45.6
2023-05-22T07:03:24.862Z,42.9
2023-05-22T07:09:20.012Z,39.2
2023-05-22T07:15:12.468Z,36.6
2023-05-22T07:21:07.438Z,34.5
2023-05-22T07:27:00.134Z,32.8
2023-05-22T07:32:52.445Z,31.5
2023-05-22T07:38:45.085Z,46.9
2023-05-22T07:44:39.278Z,44
2023-05-22T07:50:31.823Z,43.9
2023-05-22T07:56:25.574Z,44.8
2023-05-22T08:02:17.641Z,46.3
2023-05-22T08:07:57.359Z,45.8
2023-05-22T08:14:15.337Z,47.3
2023-05-22T08:20:15.756Z,51.4
2023-05-22T08:25:53.007Z,53.9
2023-05-22T08:31:45.540Z,54.8
2023-05-22T08:37:38.443Z,57.3
2023-05-22T08:43:32.460Z,59.9
2023-05-22T08:49:24.403Z,61.1
2023-05-22T08:55:17.048Z,62.3
2023-05-22T09:01:15.681Z,62.8
2023-05-22T09:07:10.969Z,58.3
2023-05-22T09:13:15.860Z,50.7
2023-05-22T09:19:09.231Z,46.9
2023-05-22T09:25:15.392Z,43.3
2023-05-22T09:31:08.070Z,39.8
2023-05-22T09:37:01.125Z,37.3
2023-05-22T09:42:53.886Z,35.6
2023-05-22T09:48:49.279Z,34.2
2023-05-22T09:54:41.188Z,33.2
2023-05-22T10:00:50.694Z,33.6
2023-05-22T10:06:46.081Z,53.6
2023-05-22T10:12:42.943Z,48.5
2023-05-22T10:18:37.306Z,44
2023-05-22T10:24:33.168Z,40.6
2023-05-22T10:30:11.426Z,38.1
2023-05-22T10:36:05.645Z,36.1
2023-05-22T10:42:09.302Z,34.4
2023-05-22T10:48:04.340Z,33.1
2023-05-22T10:53:42.678Z,32.1
2023-05-22T10:59:36.240Z,31.1
2023-05-22T11:05:41.142Z,30.4
2023-05-22T11:11:35.229Z,29.7
2023-05-22T11:17:34.344Z,29.1
2023-05-22T11:23:38.006Z,28.6
2023-05-22T11:30:01.293Z,28.3
2023-05-22T11:41:33.805Z,27.5
2023-05-22T11:47:28.817Z,27.2
2023-05-22T11:53:33.372Z,26.9
2023-05-22T11:59:28.709Z,26.7
2023-05-22T12:05:28.468Z,26.5
2023-05-22T12:11:24.153Z,26.4
2023-05-22T12:17:19.958Z,26.3
2023-05-22T12:22:59.960Z,26.1
2023-05-22T12:28:56.804Z,25.9
2023-05-22T12:34:51.685Z,25.8
2023-05-22T12:40:30.740Z,25.7
2023-05-22T12:46:26.556Z,25.6
2023-05-22T12:52:09.847Z,25.5
2023-05-22T12:58:04.906Z,25.4
2023-05-22T13:04:00.561Z,25.3
2023-05-22T13:09:39.832Z,25.2
2023-05-22T13:15:40.791Z,25.1
2023-05-22T13:21:43.641Z,25.1
2023-05-22T13:27:44.322Z,25
2023-05-22T13:33:26.410Z,24.9
2023-05-22T13:39:24.935Z,24.9
2023-05-22T13:45:21.227Z,24.8
2023-05-22T13:51:01.782Z,24.8
2023-05-22T13:56:55.345Z,24.8
2023-05-22T14:02:35.718Z,24.7
2023-05-22T14:07:58.192Z,24.6
2023-05-22T14:13:35.576Z,24.6
2023-05-22T14:19:12.896Z,24.6
2023-05-22T14:25:16.595Z,24.6
2023-05-22T14:31:09.713Z,24.5
2023-05-22T14:36:47.392Z,24.4
2023-05-22T14:42:08.462Z,24.4
2023-05-22T14:48:01.961Z,24.4
2023-05-22T14:54:07.179Z,24.4
2023-05-22T14:59:59.862Z,24.4
2023-05-22T15:05:54.788Z,24.4
2023-05-22T15:11:56.428Z,24.3
2023-05-22T15:17:48.694Z,24.3
2023-05-22T15:23:53.728Z,24.3
2023-05-22T15:29:48.969Z,24.3
2023-05-22T15:35:41.856Z,24.3
2023-05-22T15:41:35.098Z,24.2
2023-05-22T15:47:39.717Z,24.2
2023-05-22T15:53:32.582Z,24.2
2023-05-22T15:59:27.918Z,24.1
2023-05-22T16:05:22.276Z,24.1
2023-05-22T16:11:00.162Z,24.1
2023-05-22T16:16:57.907Z,24.1
2023-05-22T16:23:03.880Z,24.1
2023-05-22T16:28:58.855Z,24.1
2023-05-22T16:34:53.156Z,24.1
2023-05-22T16:40:29.795Z,24.1
2023-05-22T16:46:24.305Z,24
2023-05-22T16:52:17.573Z,24
2023-05-22T16:58:09.418Z,24
2023-05-22T17:04:03.424Z,23.9
2023-05-22T17:09:41.323Z,23.9
2023-05-22T17:15:33.734Z,23.9
2023-05-22T17:21:29.166Z,23.9
2023-05-22T17:27:07.865Z,23.9
2023-05-22T17:32:56.454Z,23.9
2023-05-22T17:38:48.303Z,23.9
2023-05-22T17:44:56.949Z,23.9
2023-05-22T17:50:49.679Z,23.8
2023-05-22T17:56:43.327Z,23.8
2023-05-22T18:02:20.830Z,23.8
2023-05-22T18:07:45.908Z,23.8
2023-05-22T18:13:54.024Z,23.8
2023-05-22T18:19:47.578Z,23.8
2023-05-22T18:25:39.464Z,23.8
2023-05-22T18:31:00.717Z,23.8
2023-05-22T18:36:54.973Z,23.8
2023-05-22T18:42:46.657Z,23.7
2023-05-22T18:48:39.833Z,23.7
2023-05-22T18:54:32.281Z,23.7
2023-05-22T19:00:24.761Z,23.7
2023-05-22T19:06:03.230Z,23.6
2023-05-22T19:11:13.289Z,23.6
2023-05-22T19:16:35.047Z,23.6
2023-05-22T19:21:56.811Z,23.6
2023-05-22T19:27:02.715Z,23.6
2023-05-22T19:32:44.089Z,23.6
2023-05-22T19:38:36.705Z,23.6
2023-05-22T19:44:29.991Z,23.6
2023-05-22T19:50:07.992Z,23.6
2023-05-22T19:56:00.786Z,23.6
2023-05-22T20:01:54.430Z,23.6
2023-05-22T20:07:16.811Z,23.6
2023-05-22T20:12:53.795Z,23.6
2023-05-22T20:18:31.449Z,23.6
2023-05-22T20:24:24.307Z,23.6
2023-05-22T20:30:16.953Z,23.6
2023-05-22T20:36:10.314Z,23.6
2023-05-22T20:42:03.161Z,23.6
2023-05-22T20:47:56.079Z,23.6
2023-05-22T20:53:32.632Z,23.6
2023-05-22T20:59:24.374Z,23.6
2023-05-22T21:05:17.793Z,23.6
2023-05-22T21:11:11.998Z,23.6
2023-05-22T21:17:04.601Z,23.6
2023-05-22T21:22:57.728Z,23.6
2023-05-22T21:28:50.210Z,23.6
2023-05-22T21:34:43.533Z,23.6
2023-05-22T21:40:36.524Z,23.6
2023-05-22T21:46:26.006Z,23.5
2023-05-22T21:52:20.049Z,23.6
2023-05-22T21:58:12.211Z,23.5
2023-05-22T22:04:05.968Z,23.5
2023-05-22T22:09:58.489Z,23.5
2023-05-22T22:15:51.146Z,23.5
2023-05-22T22:21:57.091Z,23.5
2023-05-22T22:27:49.270Z,23.4
2023-05-22T22:33:41.885Z,23.4
2023-05-22T22:39:34.229Z,23.4
2023-05-22T22:45:15.348Z,23.4
2023-05-22T22:50:52.774Z,23.4
2023-05-22T22:56:46.827Z,23.4
2023-05-22T23:02:38.949Z,23.4
2023-05-22T23:08:32.229Z,23.4
2023-05-22T23:14:25.639Z,23.3
2023-05-22T23:20:17.645Z,23.3
2023-05-22T23:25:39.050Z,23.3
2023-05-22T23:31:18.585Z,23.3
2023-05-22T23:36:54.881Z,23.3
2023-05-22T23:42:31.836Z,23.3
2023-05-22T23:48:08.786Z,23.3
2023-05-22T23:54:00.351Z,23.3
2023-05-22T23:59:52.903Z,23.3
